createdAt,value
2023-03-10T00:00:41.147Z,0
2023-03-10T00:02:46.696Z,0
2023-03-10T00:03:49.750Z,0
2023-03-10T00:05:57.557Z,0
2023-03-10T00:08:04.342Z,0
2023-03-10T00:10:11.426Z,0
2023-03-10T00:11:14.199Z,0
2023-03-10T00:13:19.356Z,0
2023-03-10T00:15:25.917Z,0
2023-03-10T00:17:31.196Z,0
2023-03-10T00:18:34.488Z,0
2023-03-10T00:20:40.762Z,0
2023-03-10T00:22:47.074Z,0
2023-03-10T00:24:53.740Z,0
2023-03-10T00:25:56.761Z,0
2023-03-10T00:28:02.619Z,0
2023-03-10T00:30:09.792Z,0
2023-03-10T00:31:13.200Z,0
2023-03-10T00:32:16.075Z,0
2023-03-10T00:33:19.459Z,0
2023-03-10T00:35:26.176Z,0
2023-03-10T00:36:29.625Z,0
2023-03-10T00:37:32.715Z,0
2023-03-10T00:38:36.097Z,0
2023-03-10T00:40:43.790Z,0
2023-03-10T00:42:49.551Z,0
2023-03-10T00:43:52.712Z,0
2023-03-10T00:45:59.659Z,0
2023-03-10T00:48:04.924Z,0
2023-03-10T00:50:10.269Z,0
2023-03-10T00:51:13.963Z,0
2023-03-10T00:53:20.725Z,0
2023-03-10T00:55:27.300Z,0
2023-03-10T00:57:34.017Z,0
2023-03-10T00:58:37.004Z,0
2023-03-10T00:59:52.577Z,0
2023-03-10T01:00:56.300Z,0
2023-03-10T01:03:02.385Z,0
2023-03-10T01:04:06.089Z,0
2023-03-10T01:05:09.296Z,0
2023-03-10T01:06:12.677Z,0
2023-03-10T01:08:18.317Z,0
2023-03-10T01:09:21.048Z,0
2023-03-10T01:10:24.387Z,0
2023-03-10T01:11:28.093Z,0
2023-03-10T01:13:34.954Z,0
2023-03-10T01:14:38.150Z,0
2023-03-10T01:15:41.239Z,0
2023-03-10T01:16:44.256Z,0
2023-03-10T01:18:50.548Z,0
2023-03-10T01:19:53.105Z,0
2023-03-10T01:20:55.821Z,0
2023-03-10T01:21:58.948Z,0
2023-03-10T01:24:05.664Z,0
2023-03-10T01:26:11.474Z,0
2023-03-10T01:27:14.926Z,0
2023-03-10T01:29:22.709Z,0
2023-03-10T01:31:29.182Z,0
2023-03-10T01:33:35.861Z,0
2023-03-10T01:34:39.495Z,0
2023-03-10T01:36:46.539Z,0
2023-03-10T01:38:52.822Z,0
2023-03-10T01:40:58.876Z,0
2023-03-10T01:42:02.608Z,0
2023-03-10T01:44:10.151Z,0
2023-03-10T01:46:16.890Z,0
2023-03-10T01:48:22.643Z,0
2023-03-10T01:49:25.777Z,0
2023-03-10T01:51:33.322Z,0
2023-03-10T01:53:38.241Z,0
2023-03-10T01:54:41.346Z,0
2023-03-10T01:56:48.456Z,0
2023-03-10T01:58:55.205Z,0
2023-03-10T01:59:59.071Z,0
2023-03-10T02:02:06.116Z,0
2023-03-10T02:04:12.157Z,0
2023-03-10T02:06:19.010Z,0
2023-03-10T02:07:22.655Z,0
2023-03-10T02:09:29.414Z,0
2023-03-10T02:11:35.910Z,0
2023-03-10T02:12:39.271Z,0
2023-03-10T02:13:42.567Z,0
2023-03-10T02:14:46.105Z,0
2023-03-10T02:16:53.003Z,0
2023-03-10T02:18:58.556Z,0
2023-03-10T02:20:01.982Z,0
2023-03-10T02:22:08.223Z,0
2023-03-10T02:23:11.289Z,0
2023-03-10T02:25:17.111Z,0
2023-03-10T02:26:19.585Z,0
2023-03-10T02:27:22.574Z,0
2023-03-10T02:28:25.570Z,0
2023-03-10T02:30:32.302Z,0
2023-03-10T02:31:36.319Z,0
2023-03-10T02:32:39.210Z,0
2023-03-10T02:33:42.466Z,0
2023-03-10T02:35:49.585Z,0
2023-03-10T02:36:52.323Z,0
2023-03-10T02:37:55.511Z,0
2023-03-10T02:38:58.872Z,0
2023-03-10T02:41:06.015Z,0
2023-03-10T02:42:09.182Z,0
2023-03-10T02:43:11.991Z,0
2023-03-10T02:44:14.709Z,0
2023-03-10T02:46:21.667Z,0
2023-03-10T02:48:30.841Z,0
2023-03-10T02:49:33.381Z,0
2023-03-10T02:51:39.195Z,0
2023-03-10T02:53:44.784Z,0
2023-03-10T02:54:48.248Z,0
2023-03-10T02:56:54.402Z,0
2023-03-10T02:59:00.133Z,0
2023-03-10T03:01:06.554Z,0
2023-03-10T03:02:10.096Z,0
2023-03-10T03:04:16.180Z,0
2023-03-10T03:06:22.383Z,0
2023-03-10T03:08:28.265Z,0
2023-03-10T03:09:31.702Z,0
2023-03-10T03:10:35.056Z,0
2023-03-10T03:11:38.493Z,0
2023-03-10T03:13:44.300Z,0
2023-03-10T03:14:47.149Z,0
2023-03-10T03:15:50.176Z,0
2023-03-10T03:16:54.363Z,0
2023-03-10T03:19:01.505Z,0
2023-03-10T03:20:04.831Z,0
2023-03-10T03:21:07.824Z,0
2023-03-10T03:22:11.169Z,0
2023-03-10T03:24:17.992Z,0
2023-03-10T03:25:21.982Z,0
2023-03-10T03:26:25.775Z,0
2023-03-10T03:27:27.934Z,0
2023-03-10T03:29:35.415Z,0
2023-03-10T03:30:37.564Z,0
2023-03-10T03:31:41.630Z,0
2023-03-10T03:32:45.004Z,0
2023-03-10T03:34:52.032Z,0
2023-03-10T03:36:58.147Z,0
2023-03-10T03:38:01.233Z,0
2023-03-10T03:40:07.198Z,0
2023-03-10T03:42:12.475Z,0
2023-03-10T03:44:18.620Z,0
2023-03-10T03:45:22.169Z,0
2023-03-10T03:47:28.219Z,0
2023-03-10T03:49:34.237Z,0
2023-03-10T03:51:41.101Z,0
2023-03-10T03:52:44.747Z,0
2023-03-10T03:54:50.380Z,0
2023-03-10T03:56:55.916Z,0
2023-03-10T03:59:01.756Z,0
2023-03-10T04:00:04.553Z,0
2023-03-10T04:02:11.401Z,0
2023-03-10T04:04:17.463Z,0
2023-03-10T04:06:25.210Z,0
2023-03-10T04:07:27.917Z,0
2023-03-10T04:09:34.776Z,0
2023-03-10T04:11:41.236Z,0
2023-03-10T04:12:44.295Z,0
2023-03-10T04:13:47.998Z,0
2023-03-10T04:14:51.738Z,0
2023-03-10T04:16:59.055Z,0
2023-03-10T04:19:05.374Z,0
2023-03-10T04:20:10.899Z,0
2023-03-10T04:22:18.359Z,0
2023-03-10T04:24:25.186Z,0
2023-03-10T04:26:30.877Z,0
2023-03-10T04:27:34.051Z,0
2023-03-10T04:29:41.310Z,0
2023-03-10T04:32:07.398Z,0
2023-03-10T04:33:10.756Z,0
2023-03-10T04:34:13.719Z,0
2023-03-10T04:36:20.783Z,0
2023-03-10T04:37:24.648Z,0
2023-03-10T04:39:30.900Z,0
2023-03-10T04:41:37.752Z,0
2023-03-10T04:43:49.609Z,0
2023-03-10T04:44:52.427Z,0
2023-03-10T04:45:56.210Z,0
2023-03-10T04:46:59.120Z,0
2023-03-10T04:49:06.334Z,0
2023-03-10T04:51:12.699Z,0
2023-03-10T04:52:16.136Z,0
2023-03-10T04:53:19.962Z,0
2023-03-10T04:54:23.076Z,0
2023-03-10T04:56:28.746Z,0
2023-03-10T04:57:31.557Z,0
2023-03-10T04:58:34.564Z,0
2023-03-10T04:59:37.559Z,0
2023-03-10T05:01:04.823Z,0
2023-03-10T05:02:08.575Z,0
2023-03-10T05:04:15.279Z,0
2023-03-10T05:06:21.399Z,0
2023-03-10T05:07:25.132Z,0
2023-03-10T05:09:33.033Z,0
2023-03-10T05:11:38.913Z,0
2023-03-10T05:13:45.124Z,0
2023-03-10T05:14:48.200Z,0
2023-03-10T05:16:53.171Z,0
2023-03-10T05:18:59.433Z,0
2023-03-10T05:21:05.788Z,0
2023-03-10T05:22:09.282Z,0
2023-03-10T05:24:16.312Z,0
2023-03-10T05:26:22.274Z,0
2023-03-10T05:28:29.097Z,0
2023-03-10T05:29:31.904Z,0
2023-03-10T05:31:37.660Z,0
2023-03-10T05:33:44.182Z,0
2023-03-10T05:35:50.743Z,0
2023-03-10T05:36:53.854Z,0
2023-03-10T05:39:00.951Z,0
2023-03-10T05:41:07.785Z,0
2023-03-10T05:43:18.320Z,0
2023-03-10T05:44:21.432Z,0
2023-03-10T05:45:25.170Z,0
2023-03-10T05:46:28.892Z,0
2023-03-10T05:48:35.161Z,0
2023-03-10T05:50:43.255Z,0
2023-03-10T05:51:46.392Z,0
2023-03-10T05:53:51.526Z,0
2023-03-10T05:55:58.477Z,0
2023-03-10T05:58:04.183Z,0
2023-03-10T05:59:06.772Z,0
2023-03-10T06:01:12.556Z,0
2023-03-10T06:03:19.987Z,0
2023-03-10T06:05:26.718Z,0
2023-03-10T06:06:29.823Z,0
2023-03-10T06:08:36.031Z,0
2023-03-10T06:10:42.641Z,0
2023-03-10T06:12:49.347Z,0
2023-03-10T06:13:52.183Z,0
2023-03-10T06:16:00.084Z,0
2023-03-10T06:18:06.388Z,0
2023-03-10T06:20:12.660Z,0
2023-03-10T06:21:15.098Z,0
2023-03-10T06:23:20.447Z,1
2023-03-10T06:25:26.619Z,1
2023-03-10T06:27:34.284Z,1
2023-03-10T06:28:37.421Z,1
2023-03-10T06:30:43.592Z,1
2023-03-10T06:32:50.194Z,1
2023-03-10T06:34:55.672Z,1
2023-03-10T06:35:59.283Z,1
2023-03-10T06:38:06.133Z,1
2023-03-10T06:40:12.834Z,1
2023-03-10T06:42:19.122Z,1
2023-03-10T06:43:23.334Z,1
2023-03-10T06:45:28.631Z,2
2023-03-10T06:47:35.187Z,2
2023-03-10T06:49:41.792Z,2
2023-03-10T06:50:45.180Z,2
2023-03-10T06:52:50.692Z,2
2023-03-10T06:54:56.934Z,2
2023-03-10T06:56:00.261Z,2
2023-03-10T06:57:03.338Z,2
2023-03-10T06:58:06.580Z,2
2023-03-10T07:00:13.023Z,2
2023-03-10T07:02:18.928Z,2
2023-03-10T07:03:22.103Z,2
2023-03-10T07:04:24.563Z,3
2023-03-10T07:05:27.728Z,3
2023-03-10T07:07:33.988Z,3
2023-03-10T07:08:37.037Z,3
2023-03-10T07:09:39.774Z,3
2023-03-10T07:10:42.292Z,3
2023-03-10T07:12:49.471Z,4
2023-03-10T07:13:52.742Z,3
2023-03-10T07:14:56.921Z,3
2023-03-10T07:15:59.632Z,4
2023-03-10T07:18:06.520Z,4
2023-03-10T07:20:13.329Z,4
2023-03-10T07:21:16.122Z,5
2023-03-10T07:23:23.311Z,5
2023-03-10T07:25:30.311Z,5
2023-03-10T07:27:37.274Z,5
2023-03-10T07:28:40.358Z,5
2023-03-10T07:30:48.078Z,6
2023-03-10T07:32:53.919Z,7
2023-03-10T07:34:59.477Z,7
2023-03-10T07:36:02.492Z,7
2023-03-10T07:38:09.351Z,8
2023-03-10T07:40:15.519Z,8
2023-03-10T07:42:22.262Z,8
2023-03-10T07:43:26.617Z,8
2023-03-10T07:45:33.169Z,8
2023-03-10T07:47:40.833Z,8
2023-03-10T07:49:46.524Z,8
2023-03-10T07:50:49.510Z,8
2023-03-10T07:52:55.418Z,9
2023-03-10T07:55:01.883Z,8
2023-03-10T07:56:05.251Z,9
2023-03-10T07:57:08.248Z,9
2023-03-10T07:58:12.152Z,9
2023-03-10T08:00:18.022Z,10
2023-03-10T08:01:22.114Z,10
2023-03-10T08:02:26.252Z,9
2023-03-10T08:03:29.584Z,11
2023-03-10T08:05:38.782Z,10
2023-03-10T08:07:45.217Z,11
2023-03-10T08:08:48.576Z,11
2023-03-10T08:10:55.386Z,12
2023-03-10T08:13:01.819Z,13
2023-03-10T08:15:08.693Z,12
2023-03-10T08:16:12.271Z,14
2023-03-10T08:18:19.603Z,11
2023-03-10T08:20:25.864Z,10
2023-03-10T08:22:32.587Z,9
2023-03-10T08:23:38.384Z,8
2023-03-10T08:25:44.874Z,9
2023-03-10T08:27:51.677Z,9
2023-03-10T08:29:58.230Z,9
2023-03-10T08:31:07.593Z,9
2023-03-10T08:32:11.411Z,9
2023-03-10T08:33:15.315Z,9
2023-03-10T08:35:22.885Z,9
2023-03-10T08:37:29.952Z,10
2023-03-10T08:38:32.829Z,9
2023-03-10T08:40:39.508Z,9
2023-03-10T08:42:49.998Z,9
2023-03-10T08:44:56.777Z,9
2023-03-10T08:46:00.104Z,9
2023-03-10T08:48:06.791Z,9
2023-03-10T08:50:15.208Z,9
2023-03-10T08:52:22.024Z,9
2023-03-10T08:53:25.055Z,9
2023-03-10T08:55:31.173Z,10
2023-03-10T08:57:37.259Z,11
2023-03-10T08:59:43.948Z,11
2023-03-10T09:00:47.333Z,11
2023-03-10T09:02:54.961Z,13
2023-03-10T09:05:02.712Z,13
2023-03-10T09:07:09.897Z,13
2023-03-10T09:08:12.976Z,13
2023-03-10T09:10:19.385Z,13
2023-03-10T09:12:40.060Z,13
2023-03-10T09:14:46.603Z,15
2023-03-10T09:16:52.498Z,15
2023-03-10T09:17:54.754Z,15
2023-03-10T09:20:01.887Z,16
2023-03-10T09:22:08.412Z,15
2023-03-10T09:23:11.500Z,17
2023-03-10T09:24:14.952Z,17
2023-03-10T09:25:18.340Z,17
2023-03-10T09:27:23.044Z,18
2023-03-10T09:28:26.355Z,18
2023-03-10T09:30:49.169Z,18
2023-03-10T09:32:57.301Z,18
2023-03-10T09:35:04.125Z,19
2023-03-10T09:36:10.525Z,19
2023-03-10T09:38:17.129Z,21
2023-03-10T09:40:22.884Z,21
2023-03-10T09:41:26.321Z,21
2023-03-10T09:42:39.907Z,20
2023-03-10T09:43:43.020Z,22
2023-03-10T09:45:50.434Z,21
2023-03-10T09:46:53.266Z,22
2023-03-10T09:48:59.338Z,22
2023-03-10T09:51:05.422Z,23
2023-03-10T09:52:09.281Z,23
2023-03-10T09:54:16.485Z,25
2023-03-10T09:56:22.760Z,24
2023-03-10T09:57:26.778Z,26
2023-03-10T09:59:33.302Z,24
2023-03-10T10:01:39.359Z,25
2023-03-10T10:02:43.362Z,25
2023-03-10T10:03:55.475Z,24
2023-03-10T10:04:59.871Z,25
2023-03-10T10:07:06.159Z,24
2023-03-10T10:08:10.010Z,26
2023-03-10T10:09:14.059Z,26
2023-03-10T10:10:17.172Z,25
2023-03-10T10:12:22.787Z,27
2023-03-10T10:13:25.879Z,26
2023-03-10T10:14:33.721Z,27
2023-03-10T10:15:38.073Z,25
2023-03-10T10:18:25.967Z,26
2023-03-10T10:19:30.084Z,27
2023-03-10T10:20:33.489Z,26
2023-03-10T10:21:44.978Z,26
2023-03-10T10:23:51.913Z,26
2023-03-10T10:26:01.579Z,25
2023-03-10T10:28:09.322Z,22
2023-03-10T10:29:13.324Z,22
2023-03-10T10:31:20.690Z,22
2023-03-10T10:33:27.181Z,23
2023-03-10T10:34:29.722Z,23
2023-03-10T10:36:36.523Z,20
2023-03-10T10:38:46.718Z,22
2023-03-10T10:39:50.226Z,22
2023-03-10T10:41:57.514Z,21
2023-03-10T10:44:04.008Z,20
2023-03-10T10:45:07.224Z,19
2023-03-10T10:47:13.959Z,18
2023-03-10T10:49:20.727Z,19
2023-03-10T10:50:24.852Z,18
2023-03-10T10:52:31.335Z,19
2023-03-10T10:54:37.619Z,19
2023-03-10T10:55:40.726Z,21
2023-03-10T10:57:47.574Z,20
2023-03-10T10:59:54.369Z,20
2023-03-10T11:00:58.596Z,20
2023-03-10T11:03:06.434Z,22
2023-03-10T11:05:13.211Z,20
2023-03-10T11:06:16.604Z,21
2023-03-10T11:08:23.091Z,22
2023-03-10T11:10:30.140Z,21
2023-03-10T11:11:33.967Z,22
2023-03-10T11:13:40.452Z,21
2023-03-10T11:14:43.257Z,22
2023-03-10T11:16:50.420Z,23
2023-03-10T11:18:56.924Z,24
2023-03-10T11:20:00.354Z,22
2023-03-10T11:22:06.236Z,20
2023-03-10T11:23:09.605Z,19
2023-03-10T11:25:16.444Z,22
2023-03-10T11:27:23.670Z,20
2023-03-10T11:28:27.442Z,20
2023-03-10T11:30:33.668Z,21
2023-03-10T11:32:41.404Z,20
2023-03-10T11:33:44.797Z,20
2023-03-10T11:35:51.781Z,21
2023-03-10T11:38:02.014Z,21
2023-03-10T11:39:05.157Z,21
2023-03-10T11:41:12.173Z,22
2023-03-10T11:42:15.220Z,18
2023-03-10T11:43:18.951Z,20
2023-03-10T11:44:22.696Z,19
2023-03-10T11:45:25.714Z,20
2023-03-10T11:46:30.004Z,23
2023-03-10T11:47:32.769Z,20
2023-03-10T11:49:39.042Z,22
2023-03-10T11:50:42.129Z,25
2023-03-10T11:52:48.187Z,27
2023-03-10T11:54:54.633Z,24
2023-03-10T11:55:58.638Z,23
2023-03-10T11:58:05.169Z,18
2023-03-10T12:00:12.916Z,15
2023-03-10T12:01:16.940Z,15
2023-03-10T12:03:23.723Z,15
2023-03-10T12:04:26.934Z,16
2023-03-10T12:06:33.087Z,17
2023-03-10T12:08:39.640Z,19
2023-03-10T12:09:43.034Z,20
2023-03-10T12:11:49.464Z,25
2023-03-10T12:13:55.253Z,32
2023-03-10T12:14:58.755Z,35
2023-03-10T12:16:03.080Z,39
2023-03-10T12:17:06.456Z,38
2023-03-10T12:19:12.364Z,41
2023-03-10T12:20:15.942Z,38
2023-03-10T12:21:20.052Z,41
2023-03-10T12:22:22.824Z,42
2023-03-10T12:24:28.838Z,42
2023-03-10T12:25:31.953Z,43
2023-03-10T12:26:34.713Z,46
2023-03-10T12:27:37.666Z,45
2023-03-10T12:29:43.850Z,50
2023-03-10T12:30:47.611Z,51
2023-03-10T12:32:56.037Z,54
2023-03-10T12:33:59.350Z,49
2023-03-10T12:36:06.035Z,53
2023-03-10T12:37:09.696Z,49
2023-03-10T12:38:12.832Z,50
2023-03-10T12:39:16.648Z,51
2023-03-10T12:41:22.426Z,57
2023-03-10T12:42:28.260Z,54
2023-03-10T12:44:34.615Z,48
2023-03-10T12:46:42.100Z,44
2023-03-10T12:47:45.387Z,43
2023-03-10T12:49:52.193Z,45
2023-03-10T12:51:59.094Z,57
2023-03-10T12:53:01.862Z,54
2023-03-10T12:55:08.676Z,55
2023-03-10T12:56:11.768Z,56
2023-03-10T12:57:18.847Z,58
2023-03-10T12:58:22.057Z,56
2023-03-10T12:59:25.138Z,59
2023-03-10T13:00:27.908Z,56
2023-03-10T13:01:31.165Z,60
2023-03-10T13:02:36.444Z,61
2023-03-10T13:03:40.927Z,59
2023-03-10T13:04:44.661Z,63
2023-03-10T13:06:51.541Z,76
2023-03-10T13:07:55.005Z,77
2023-03-10T13:10:01.130Z,74
2023-03-10T13:12:07.083Z,78
2023-03-10T13:13:10.771Z,84
2023-03-10T13:15:17.261Z,93
2023-03-10T13:17:24.514Z,83
2023-03-10T13:18:27.698Z,88
2023-03-10T13:19:31.584Z,81
2023-03-10T13:20:34.679Z,81
2023-03-10T13:22:42.074Z,70
2023-03-10T13:23:45.497Z,74
2023-03-10T13:24:48.038Z,77
2023-03-10T13:25:51.681Z,81
2023-03-10T13:27:57.101Z,107
2023-03-10T13:29:00.378Z,116
2023-03-10T13:31:06.804Z,105
2023-03-10T13:33:14.557Z,114
2023-03-10T13:34:18.371Z,112
2023-03-10T13:35:22.162Z,100
2023-03-10T13:36:24.963Z,86
2023-03-10T13:38:31.529Z,93
2023-03-10T13:39:34.644Z,88
2023-03-10T13:40:38.020Z,81
2023-03-10T13:41:41.366Z,83
2023-03-10T13:43:50.285Z,80
2023-03-10T13:44:53.754Z,80
2023-03-10T13:47:01.522Z,78
2023-03-10T13:49:07.697Z,64
2023-03-10T13:50:11.408Z,70
2023-03-10T13:51:15.460Z,58
2023-03-10T13:52:20.386Z,57
2023-03-10T13:54:26.744Z,54
2023-03-10T13:55:30.087Z,54
2023-03-10T13:57:37.561Z,50
2023-03-10T13:59:43.544Z,51
2023-03-10T14:01:50.503Z,58
2023-03-10T14:02:53.261Z,51
2023-03-10T14:03:56.988Z,52
2023-03-10T14:05:00.140Z,55
2023-03-10T14:07:07.708Z,45
2023-03-10T14:08:10.778Z,47
2023-03-10T14:10:17.559Z,48
2023-03-10T14:12:23.997Z,59
2023-03-10T14:13:26.990Z,60
2023-03-10T14:15:32.917Z,60
2023-03-10T14:17:39.400Z,67
2023-03-10T14:19:45.941Z,67
2023-03-10T14:20:49.771Z,65
2023-03-10T14:22:04.707Z,73
2023-03-10T14:23:09.530Z,75
2023-03-10T14:25:15.952Z,82
2023-03-10T14:27:22.743Z,85
2023-03-10T14:28:25.548Z,81
2023-03-10T14:30:33.266Z,85
2023-03-10T14:32:42.046Z,78
2023-03-10T14:33:45.107Z,76
2023-03-10T14:34:48.801Z,73
2023-03-10T14:35:52.565Z,72
2023-03-10T14:37:59.963Z,60
2023-03-10T14:40:06.885Z,68
2023-03-10T14:41:10.325Z,64
2023-03-10T14:43:16.511Z,73
2023-03-10T14:45:22.431Z,62
2023-03-10T14:47:32.127Z,58
2023-03-10T14:48:35.940Z,48
2023-03-10T14:50:42.938Z,62
2023-03-10T14:52:49.377Z,56
2023-03-10T14:53:53.532Z,54
2023-03-10T14:56:00.350Z,53
2023-03-10T14:58:07.880Z,50
2023-03-10T15:00:14.027Z,51
2023-03-10T15:01:18.038Z,56
2023-03-10T15:02:21.757Z,59
2023-03-10T15:03:25.777Z,55
2023-03-10T15:05:51.068Z,69
2023-03-10T15:07:57.557Z,61
2023-03-10T15:10:14.080Z,59
2023-03-10T15:11:38.868Z,59
2023-03-10T15:12:41.750Z,53
2023-03-10T15:14:48.945Z,52
2023-03-10T15:15:52.770Z,54
2023-03-10T15:17:59.701Z,58
2023-03-10T15:20:06.491Z,62
2023-03-10T15:22:13.733Z,65
2023-03-10T15:23:21.870Z,66
2023-03-10T15:24:25.707Z,62
2023-03-10T15:25:29.580Z,57
2023-03-10T15:27:36.344Z,56
2023-03-10T15:29:43.621Z,58
2023-03-10T15:30:47.243Z,51
2023-03-10T15:31:50.986Z,52
2023-03-10T15:32:54.931Z,51
2023-03-10T15:35:01.846Z,56
2023-03-10T15:36:05.345Z,45
2023-03-10T15:37:08.438Z,53
2023-03-10T15:38:12.061Z,51
2023-03-10T15:39:38.377Z,53
2023-03-10T15:40:42.164Z,50
2023-03-10T15:42:49.400Z,58
2023-03-10T15:44:55.160Z,45
2023-03-10T15:45:58.568Z,46
2023-03-10T15:48:05.635Z,39
2023-03-10T15:50:12.700Z,34
2023-03-10T15:52:19.104Z,31
2023-03-10T15:53:22.489Z,28
2023-03-10T15:55:29.016Z,29
2023-03-10T15:57:36.862Z,24
2023-03-10T15:59:42.948Z,27
2023-03-10T16:00:46.041Z,26
2023-03-10T16:02:53.864Z,22
2023-03-10T16:05:00.173Z,27
2023-03-10T16:06:03.668Z,26
2023-03-10T16:07:06.396Z,31
2023-03-10T16:08:10.021Z,30
2023-03-10T16:10:16.425Z,24
2023-03-10T16:11:19.621Z,20
2023-03-10T16:12:23.468Z,19
2023-03-10T16:13:26.002Z,17
2023-03-10T16:15:31.980Z,17
2023-03-10T16:17:39.010Z,13
2023-03-10T16:18:42.753Z,11
2023-03-10T16:20:48.365Z,10
2023-03-10T16:22:54.806Z,9
2023-03-10T16:25:00.642Z,8
2023-03-10T16:26:04.065Z,8
2023-03-10T16:28:12.488Z,8
2023-03-10T16:30:20.075Z,7
2023-03-10T16:31:23.823Z,8
2023-03-10T16:32:27.834Z,7
2023-03-10T16:33:31.306Z,8
2023-03-10T16:35:38.143Z,7
2023-03-10T16:37:44.962Z,7
2023-03-10T16:38:48.084Z,7
2023-03-10T16:40:54.642Z,6
2023-03-10T16:43:01.656Z,5
2023-03-10T16:44:05.473Z,4
2023-03-10T16:45:08.018Z,3
2023-03-10T16:46:12.068Z,3
2023-03-10T16:48:21.988Z,3
2023-03-10T16:50:29.115Z,2
2023-03-10T16:51:31.902Z,2
2023-03-10T16:53:38.895Z,2
2023-03-10T16:55:45.556Z,2
2023-03-10T16:56:49.000Z,2
2023-03-10T16:58:55.619Z,1
2023-03-10T17:01:02.916Z,1
2023-03-10T17:03:09.303Z,1
2023-03-10T17:04:13.094Z,1
2023-03-10T17:06:21.084Z,1
2023-03-10T17:08:27.326Z,1
2023-03-10T17:10:33.786Z,1
2023-03-10T17:11:37.849Z,0
2023-03-10T17:13:43.356Z,0
2023-03-10T17:15:51.088Z,0
2023-03-10T17:17:58.963Z,0
2023-03-10T17:19:02.820Z,0
2023-03-10T17:21:08.630Z,0
2023-03-10T17:23:15.065Z,0
2023-03-10T17:24:17.898Z,0
2023-03-10T17:25:20.703Z,0
2023-03-10T17:26:23.888Z,0
2023-03-10T17:28:29.677Z,0
2023-03-10T17:30:36.797Z,0
2023-03-10T17:31:41.232Z,0
2023-03-10T17:33:47.710Z,0
2023-03-10T17:35:54.463Z,0
2023-03-10T17:38:00.931Z,0
2023-03-10T17:39:04.784Z,0
2023-03-10T17:41:11.270Z,0
2023-03-10T17:43:36.679Z,0
2023-03-10T17:45:43.477Z,0
2023-03-10T17:47:51.278Z,0
2023-03-10T17:48:54.967Z,0
2023-03-10T17:51:02.231Z,0
2023-03-10T17:53:09.093Z,0
2023-03-10T17:54:13.551Z,0
2023-03-10T17:55:16.651Z,0
2023-03-10T17:56:19.754Z,0
2023-03-10T17:58:26.328Z,0
2023-03-10T18:00:32.686Z,0
2023-03-10T18:01:36.249Z,0
2023-03-10T18:03:48.422Z,0
2023-03-10T18:05:54.260Z,0
2023-03-10T18:08:00.788Z,0
2023-03-10T18:09:04.978Z,0
2023-03-10T18:11:11.713Z,0
2023-03-10T18:13:18.697Z,0
2023-03-10T18:15:25.316Z,0
2023-03-10T18:16:28.424Z,0
2023-03-10T18:18:35.962Z,0
2023-03-10T18:20:41.987Z,0
2023-03-10T18:22:47.657Z,0
2023-03-10T18:23:51.136Z,0
2023-03-10T18:25:56.169Z,0
2023-03-10T18:28:02.952Z,0
2023-03-10T18:30:10.197Z,0
2023-03-10T18:31:13.933Z,0
2023-03-10T18:33:22.065Z,0
2023-03-10T18:35:29.478Z,0
2023-03-10T18:37:36.101Z,0
2023-03-10T18:38:39.257Z,0
2023-03-10T18:40:45.891Z,0
2023-03-10T18:42:51.471Z,0
2023-03-10T18:44:57.628Z,0
2023-03-10T18:46:01.514Z,0
2023-03-10T18:48:06.466Z,0
2023-03-10T18:50:13.184Z,0
2023-03-10T18:52:20.425Z,0
2023-03-10T18:53:23.808Z,0
2023-03-10T18:55:30.147Z,0
2023-03-10T18:57:36.710Z,0
2023-03-10T18:59:43.044Z,0
2023-03-10T19:00:47.121Z,0
2023-03-10T19:02:53.779Z,0
2023-03-10T19:05:01.138Z,0
2023-03-10T19:07:08.187Z,0
2023-03-10T19:08:12.237Z,0
2023-03-10T19:10:19.133Z,0
2023-03-10T19:12:25.059Z,0
2023-03-10T19:14:31.885Z,0
2023-03-10T19:15:34.412Z,0
2023-03-10T19:17:41.062Z,0
2023-03-10T19:19:47.831Z,0
2023-03-10T19:21:55.533Z,0
2023-03-10T19:22:58.605Z,0
2023-03-10T19:25:05.009Z,0
2023-03-10T19:27:12.777Z,0
2023-03-10T19:29:18.840Z,0
2023-03-10T19:30:21.992Z,0
2023-03-10T19:32:29.255Z,0
2023-03-10T19:34:36.369Z,0
2023-03-10T19:36:43.559Z,0
2023-03-10T19:37:47.340Z,0
2023-03-10T19:39:52.319Z,0
2023-03-10T19:41:57.877Z,0
2023-03-10T19:44:04.664Z,0
2023-03-10T19:45:07.673Z,0
2023-03-10T19:47:13.968Z,0
2023-03-10T19:49:22.194Z,0
2023-03-10T19:51:30.198Z,0
2023-03-10T19:52:33.742Z,0
2023-03-10T19:54:40.769Z,0
2023-03-10T19:56:47.962Z,0
2023-03-10T19:58:54.859Z,0
2023-03-10T19:59:57.705Z,0
2023-03-10T20:02:05.280Z,0
2023-03-10T20:04:12.262Z,0
2023-03-10T20:06:19.038Z,0
2023-03-10T20:07:21.212Z,0
2023-03-10T20:09:28.519Z,0
2023-03-10T20:11:34.490Z,0
2023-03-10T20:13:40.764Z,0
2023-03-10T20:14:43.200Z,0
2023-03-10T20:16:49.768Z,0
2023-03-10T20:18:56.148Z,0
2023-03-10T20:21:02.027Z,0
2023-03-10T20:22:05.316Z,0
2023-03-10T20:24:11.911Z,0
2023-03-10T20:26:19.443Z,0
2023-03-10T20:28:26.315Z,0
2023-03-10T20:29:29.594Z,0
2023-03-10T20:31:35.252Z,0
2023-03-10T20:33:42.609Z,0
2023-03-10T20:35:49.585Z,0
2023-03-10T20:36:52.871Z,0
2023-03-10T20:37:56.311Z,0
2023-03-10T20:38:59.939Z,0
2023-03-10T20:41:07.903Z,0
2023-03-10T20:42:10.334Z,0
2023-03-10T20:43:14.007Z,0
2023-03-10T20:44:16.625Z,0
2023-03-10T20:46:23.234Z,0
2023-03-10T20:48:29.493Z,0
2023-03-10T20:49:33.212Z,0
2023-03-10T20:51:39.392Z,0
2023-03-10T20:53:45.683Z,0
2023-03-10T20:55:52.933Z,0
2023-03-10T20:56:56.731Z,0
2023-03-10T20:59:03.942Z,0
2023-03-10T21:01:11.129Z,0
2023-03-10T21:03:17.030Z,0
2023-03-10T21:04:20.838Z,0
2023-03-10T21:06:28.276Z,0
2023-03-10T21:08:34.624Z,0
2023-03-10T21:10:42.081Z,0
2023-03-10T21:11:45.188Z,0
2023-03-10T21:13:52.727Z,0
2023-03-10T21:15:58.972Z,0
2023-03-10T21:18:06.109Z,0
2023-03-10T21:19:09.028Z,0
2023-03-10T21:20:11.935Z,0
2023-03-10T21:21:15.216Z,0
2023-03-10T21:23:22.446Z,0
2023-03-10T21:24:25.317Z,0
2023-03-10T21:25:28.957Z,0
2023-03-10T21:26:32.367Z,0
2023-03-10T21:28:39.779Z,0
2023-03-10T21:29:42.807Z,0
2023-03-10T21:30:45.922Z,0
2023-03-10T21:31:48.933Z,0
2023-03-10T21:33:55.744Z,0
2023-03-10T21:36:01.849Z,0
2023-03-10T21:37:05.300Z,0
2023-03-10T21:39:11.458Z,0
2023-03-10T21:41:16.933Z,0
2023-03-10T21:43:23.361Z,0
2023-03-10T21:44:27.438Z,0
2023-03-10T21:46:34.385Z,0
2023-03-10T21:48:42.362Z,0
2023-03-10T21:50:48.505Z,0
2023-03-10T21:51:51.739Z,0
2023-03-10T21:53:58.917Z,0
2023-03-10T21:56:04.716Z,0
2023-03-10T21:58:11.167Z,0
2023-03-10T21:59:14.534Z,0
2023-03-10T22:01:22.453Z,0
2023-03-10T22:03:29.585Z,0
2023-03-10T22:05:36.428Z,0
2023-03-10T22:06:39.951Z,0
2023-03-10T22:08:45.959Z,0
2023-03-10T22:10:52.897Z,0
2023-03-10T22:12:59.224Z,0
2023-03-10T22:14:01.718Z,0
2023-03-10T22:15:05.509Z,0
2023-03-10T22:16:09.817Z,0
2023-03-10T22:18:15.735Z,0
2023-03-10T22:19:18.936Z,0
2023-03-10T22:20:22.365Z,0
2023-03-10T22:21:26.015Z,0
2023-03-10T22:23:31.875Z,0
2023-03-10T22:24:34.732Z,0
2023-03-10T22:25:38.438Z,0
2023-03-10T22:26:41.847Z,0
2023-03-10T22:28:47.052Z,0
2023-03-10T22:30:54.525Z,0
2023-03-10T22:31:58.397Z,0
2023-03-10T22:34:04.824Z,0
2023-03-10T22:36:10.825Z,0
2023-03-10T22:38:16.203Z,0
2023-03-10T22:39:19.000Z,0
2023-03-10T22:41:25.811Z,0
2023-03-10T22:43:32.665Z,0
2023-03-10T22:44:35.720Z,0
2023-03-10T22:45:38.228Z,0
2023-03-10T22:46:42.180Z,0
2023-03-10T22:48:49.634Z,0
2023-03-10T22:50:56.634Z,0
2023-03-10T22:52:00.153Z,0
2023-03-10T22:54:07.024Z,0
2023-03-10T22:56:13.987Z,0
2023-03-10T22:58:19.587Z,0
2023-03-10T22:59:22.772Z,0
2023-03-10T23:01:29.092Z,0
2023-03-10T23:03:36.749Z,0
2023-03-10T23:05:42.819Z,0
2023-03-10T23:06:46.985Z,0
2023-03-10T23:08:52.367Z,0
2023-03-10T23:10:58.928Z,0
2023-03-10T23:13:06.884Z,0
2023-03-10T23:14:10.697Z,0
2023-03-10T23:15:27.706Z,0
2023-03-10T23:16:32.034Z,0
2023-03-10T23:18:38.742Z,0
2023-03-10T23:20:46.437Z,0
2023-03-10T23:22:54.460Z,0
2023-03-10T23:23:57.446Z,0
2023-03-10T23:26:03.584Z,0
2023-03-10T23:28:09.555Z,0
2023-03-10T23:30:15.811Z,0
2023-03-10T23:31:19.463Z,0
2023-03-10T23:33:26.148Z,0
2023-03-10T23:35:34.753Z,0
2023-03-10T23:37:41.612Z,0
2023-03-10T23:38:44.276Z,0
2023-03-10T23:40:51.587Z,0
2023-03-10T23:42:57.913Z,0
2023-03-10T23:45:03.481Z,0
2023-03-10T23:46:07.096Z,0
2023-03-10T23:47:10.312Z,0
2023-03-10T23:48:12.743Z,0
2023-03-10T23:50:19.311Z,0
2023-03-10T23:51:23.056Z,0
2023-03-10T23:52:27.156Z,0
2023-03-10T23:53:30.653Z,0
2023-03-10T23:55:37.436Z,0
2023-03-10T23:56:41.094Z,0
2023-03-10T23:57:44.102Z,0
2023-03-10T23:58:47.189Z,0
